Terminal Aerodrome Forecast
Issued by NWS Nashville, TN

Home | Current Version | Previous Version | Text Only | Print | Product List | Glossary On
Versions: 1 2 3 4 5 6 7 8 9 10 11 12 13 14 15 16 17 18
753
FTUS44 KOHX 270804 AAB
TAFBNA
TAF AMD
KBNA 270804Z 2708/2806 12009KT 5SM -SHRA BR SCT022 BKN070 OVC090
     FM270900 19006KT P6SM SCT007 OVC025
     FM271500 26009G16KT P6SM SCT030=

USA.gov is the U.S. government's official web portal to all federal, state and local government web resources and services.